首页
METAR-TAF:

METAR-TAF

机场 :

Bar Harbor, 缅因州, 美国

纬度: 44-27N, 经度: 068-22W, 海拔: 26米

当前天气观测

该预报发布于25分钟前的21:56 UTC
风速9节,风向南转西南
温度 9°C
湿度 61%
气压 1020 hPa
能見度: 16.1公里
天空无云

METAR: KBHB 172156Z AUTO 21009KT 10SM CLR 09/02 A3012 RMK AO2 SLP203 T00890017

时间: 18:21 (22:21 UTC)

预报

该预报发布于4小时和57分钟前的17:24 UTC
预报有效从17日的 18点(UTC)到 18日的 18点(UTC)
风速10节,风向北转西北
能見度: 10公里
散云层高于5000英尺
从 17日的 2200点(UTC)
风速6节,风向
能見度: 10公里
散云层高于20000英尺
从 18日的 1200点(UTC)
风速6节,风向东转东北
能見度: 10公里
少量云层高于6000英尺

TAF: KBHB 171724Z 1718/1818 34010KT P6SM SCT050 FM172200 36006KT P6SM SCT200 FM181200 07006KT P6SM FEW060

超过4000个机场的气象观测和天气预报(METAR&TAF报告)。

可查询的气象台以黄色和红色小点在地图上表示。

将鼠标移到小点上方,可查看气象台名称。

然后点击查看天气观测和预报。

如需切换地图:点击带黑十字的绿色按钮放大地图;点击带横线的绿色按钮缩小地图;或者点击绿色箭头查看邻近地区的地图。


METAR-TAF: